Airfield :
LOGIN :

Register | Disclaimer

   EN    FR    IT 

 










Legend :    VFR   Marginal VFR   IFR   Intensive IFR   Very Intensive IFR
Visi :
Ceiling :
>= 8 km
>= 3000ft
5 to 8 km
1000 to 3000 ft
1500m to 5 km
500 to 1000 ft
800 to 1500m
200 to 500 ft
< 800m
< 200 ft
Symbols :   Thunderstorms  Fog  Heavy snow  Heavy precipitations  Wind > 20 kt
SIGMETs :     Misc.  Thunderstorms  Icing  Turbulence  Mountain Waves  Volcanic Ashes







- Airport Elevation : 1036 ft
- IATA code : ERF


EDDE - Erfurt

CURRENT METAR :
  • 290350Z 22008KT CAVOK 15/12 Q1016 NOSIG

EXPIRED METARs :
  • 290320Z 21008KT CAVOK 16/11 Q1015
  • 290250Z 20007KT CAVOK 16/11 Q1015
  • 290220Z 21005KT CAVOK 17/11 Q1015
  • 290150Z 21005KT CAVOK 16/11 Q1016
  • 290120Z 20007KT CAVOK 16/11 Q1016

TAF TAF EDDE
Valid from the 29 at 00:00 until the 30 at 00:00 UTC


282300Z 2900/2924 21007KT CAVOK
BECMG 2907/2909 27006KT
BECMG 2914/2916 21005KT
No reported NOTAMs for that airfield.



MET'MAP, your aeronautical weather chart ! - Copyright ORBIFLY December 2007 - Disclaimer

ORBIFLY MET'MAP TEAM :

Programming & Development : Alexandra Zaïnal
Concept & Development : Baudouin d'Aumeries
Co-Development & Prog : Marc-Olivier Méhu
Technical & hardware support : Manuel Goepfert

Contact : metmap@orbifly.com




SOURCES & CREDITS :

   NOAA